Time;durP1;ratioP1;P1;durP2;ratioP2;P2;SDS_P1;SDS_P2;PMS_P1;PMS_P2;Temp;Humidity;BMP_temperature;BMP_pressure;BME280_temperature;BME280_humidity;BME280_pressure;Samples;Min_cycle;Max_cycle;Signal;HPM_P1;HPM_P2
2021/08/24 00:01:39;;;;;;;;;;;20.40;61.70;;;;;;20699162;28;19953;-82
2021/08/24 00:11:40;;;;;;;;;;;20.40;61.70;;;;;;20697657;28;19917;-82
2021/08/24 00:21:40;;;;;;;;;;;20.30;61.60;;;;;;20714211;28;19909;-81
2021/08/24 00:31:41;;;;;;;;;;;20.30;61.70;;;;;;20713541;28;19913;-81
2021/08/24 00:41:43;;;;;;;;;;;20.40;61.70;;;;;;20746728;28;19913;-81
2021/08/24 00:51:44;;;;;;;;;;;20.30;61.70;;;;;;20729676;28;19924;-81
2021/08/24 01:01:48;;;;;;;;;;;20.30;61.70;;;;;;20744055;28;19917;-82
2021/08/24 01:12:10;;;;;;;;;;;20.30;61.70;;;;;;20711866;28;19913;-81
2021/08/24 01:22:16;;;;;;;;;;;20.30;61.70;;;;;;20742851;28;19914;-80
2021/08/24 01:32:35;;;;;;;;;;;20.30;61.70;;;;;;20724948;28;19914;-81
2021/08/24 01:42:36;;;;;;;;;;;20.20;61.70;;;;;;20741618;28;19920;-82
2021/08/24 01:52:38;;;;;;;;;;;20.20;61.80;;;;;;20724460;28;20377;-82
2021/08/24 02:02:40;;;;;;;;;;;20.20;61.80;;;;;;20739726;28;20253;-82
2021/08/24 02:12:41;;;;;;;;;;;20.10;61.80;;;;;;20723106;28;20287;-82
2021/08/24 02:22:41;;;;;;;;;;;20.30;62.00;;;;;;20737444;28;19918;-81
2021/08/24 02:32:44;;;;;;;;;;;20.10;62.00;;;;;;20705771;28;20361;-81
2021/08/24 02:42:46;;;;;;;;;;;20.10;62.00;;;;;;20719676;28;19921;-81
2021/08/24 02:52:46;;;;;;;;;;;20.10;62.00;;;;;;20720239;28;19917;-81
2021/08/24 03:02:47;;;;;;;;;;;20.10;62.10;;;;;;20717922;28;20352;-81
2021/08/24 03:12:49;;;;;;;;;;;20.10;62.20;;;;;;20718652;28;19963;-80
2021/08/24 03:22:50;;;;;;;;;;;20.20;62.20;;;;;;20717135;28;20372;-81
2021/08/24 03:32:51;;;;;;;;;;;20.00;62.20;;;;;;20716871;28;19920;-82
2021/08/24 03:42:52;;;;;;;;;;;20.10;62.30;;;;;;20749392;28;19917;-81
2021/08/24 03:52:53;;;;;;;;;;;20.10;62.30;;;;;;20731119;28;20000;-80
2021/08/24 04:02:53;;;;;;;;;;;20.00;62.30;;;;;;20749667;28;20002;-81
2021/08/24 04:12:54;;;;;;;;;;;20.00;63.00;;;;;;20714922;28;19914;-83
2021/08/24 04:22:54;;;;;;;;;;;20.00;62.30;;;;;;20698558;28;19928;-82
2021/08/24 04:32:56;;;;;;;;;;;20.00;62.30;;;;;;20729460;28;19909;-82
2021/08/24 04:42:57;;;;;;;;;;;20.00;62.30;;;;;;20729529;28;20315;-82
2021/08/24 04:52:57;;;;;;;;;;;20.00;62.40;;;;;;20728542;28;19916;-85
2021/08/24 05:02:58;;;;;;;;;;;20.00;62.50;;;;;;20711979;28;19917;-85
2021/08/24 05:13:00;;;;;;;;;;;19.90;62.50;;;;;;20711048;28;19909;-84
2021/08/24 05:23:00;;;;;;;;;;;19.90;62.50;;;;;;20718010;28;20295;-86
2021/08/24 05:33:01;;;;;;;;;;;19.90;62.60;;;;;;20733992;28;20000;-86
2021/08/24 05:43:02;;;;;;;;;;;19.90;62.70;;;;;;20734344;28;19917;-89
2021/08/24 05:53:03;;;;;;;;;;;19.90;62.90;;;;;;20740468;28;20604;-83
2021/08/24 06:03:04;;;;;;;;;;;19.90;63.00;;;;;;20724780;28;19921;-83
2021/08/24 06:13:04;;;;;;;;;;;19.90;63.10;;;;;;20718181;28;19914;-81
2021/08/24 06:23:05;;;;;;;;;;;20.00;63.20;;;;;;20719067;28;19921;-82
2021/08/24 06:33:06;;;;;;;;;;;19.90;63.30;;;;;;20696273;28;19956;-76
2021/08/24 06:43:06;;;;;;;;;;;19.90;63.40;;;;;;20698452;28;19924;-80
2021/08/24 06:53:09;;;;;;;;;;;19.90;63.40;;;;;;20727195;28;20004;-79
2021/08/24 07:03:10;;;;;;;;;;;19.90;63.40;;;;;;20697219;28;19975;-79
2021/08/24 07:13:10;;;;;;;;;;;19.90;63.50;;;;;;20696473;28;19909;-79
2021/08/24 07:23:11;;;;;;;;;;;19.90;63.50;;;;;;20711456;28;19917;-79
2021/08/24 07:33:12;;;;;;;;;;;19.90;63.60;;;;;;20746090;28;20272;-78
2021/08/24 07:43:12;;;;;;;;;;;19.90;63.60;;;;;;20693999;28;19918;-77
2021/08/24 07:53:13;;;;;;;;;;;19.90;63.70;;;;;;20726393;28;20364;-78
2021/08/24 08:03:13;;;;;;;;;;;19.90;63.70;;;;;;20725273;28;20303;-78
2021/08/24 08:13:14;;;;;;;;;;;19.90;63.80;;;;;;20708424;28;19926;-77
2021/08/24 08:23:15;;;;;;;;;;;20.10;63.90;;;;;;20708217;28;19921;-77
2021/08/24 08:33:15;;;;;;;;;;;20.00;63.90;;;;;;20707948;28;19909;-77
2021/08/24 08:43:28;;;;;;;;;;;20.00;63.90;;;;;;20691236;28;19924;-77
2021/08/24 08:53:43;;;;;;;;;;;20.00;63.80;;;;;;20723568;28;19909;-78
2021/08/24 09:04:07;;;;;;;;;;;20.00;63.80;;;;;;20706463;28;19929;-78
2021/08/24 09:14:08;;;;;;;;;;;20.00;63.80;;;;;;20729804;28;20411;-78
2021/08/24 09:24:12;;;;;;;;;;;20.00;63.70;;;;;;20737238;28;19917;-78
2021/08/24 09:34:14;;;;;;;;;;;20.00;63.70;;;;;;20720087;28;19972;-78
2021/08/24 09:44:21;;;;;;;;;;;20.00;63.70;;;;;;20753219;28;20008;-78
2021/08/24 09:54:38;;;;;;;;;;;20.10;63.80;;;;;;20718737;28;19913;-78
2021/08/24 10:04:53;;;;;;;;;;;20.00;63.80;;;;;;21125889;22;19928;-76
2021/08/24 10:14:55;;;;;;;;;;;20.10;63.80;;;;;;20717759;28;19917;-76
2021/08/24 10:24:57;;;;;;;;;;;20.00;63.80;;;;;;20700543;28;19953;-77
2021/08/24 10:34:58;;;;;;;;;;;20.00;63.80;;;;;;20715509;28;20003;-76
2021/08/24 10:45:00;;;;;;;;;;;20.00;63.90;;;;;;20731573;28;19963;-77
2021/08/24 10:55:13;;;;;;;;;;;20.10;63.90;;;;;;20715391;28;19916;-77
2021/08/24 11:05:23;;;;;;;;;;;20.00;63.90;;;;;;20697076;28;19925;-77
2021/08/24 11:15:42;;;;;;;;;;;20.00;63.90;;;;;;20728661;28;19909;-78
2021/08/24 11:25:44;;;;;;;;;;;20.00;63.90;;;;;;20727494;28;19925;-78
2021/08/24 11:35:52;;;;;;;;;;;20.00;64.00;;;;;;20726930;28;20371;-77
2021/08/24 11:45:53;;;;;;;;;;;20.00;64.00;;;;;;20709961;28;20083;-77
2021/08/24 11:55:56;;;;;;;;;;;20.00;64.00;;;;;;20709630;28;20000;-78
2021/08/24 12:06:02;;;;;;;;;;;20.00;64.00;;;;;;20709294;28;19922;-77
2021/08/24 12:16:21;;;;;;;;;;;20.10;64.00;;;;;;20708570;28;19914;-78
2021/08/24 12:26:22;;;;;;;;;;;20.10;64.10;;;;;;20724018;28;19967;-78
2021/08/24 12:36:22;;;;;;;;;;;20.10;64.10;;;;;;20723311;28;19913;-77
2021/08/24 12:46:23;;;;;;;;;;;20.10;64.10;;;;;;20757536;28;19917;-76
2021/08/24 12:56:33;;;;;;;;;;;20.00;64.00;;;;;;20723009;28;19920;-78
2021/08/24 13:06:37;;;;;;;;;;;20.10;64.10;;;;;;20757381;28;20040;-77
2021/08/24 13:16:54;;;;;;;;;;;20.10;64.10;;;;;;20721599;28;20364;-77
2021/08/24 13:26:55;;;;;;;;;;;20.10;64.10;;;;;;20737427;28;19921;-77
2021/08/24 13:36:56;;;;;;;;;;;20.10;64.10;;;;;;20736214;28;20466;-77
2021/08/24 13:46:57;;;;;;;;;;;20.10;64.10;;;;;;20734816;28;19917;-77
2021/08/24 13:56:58;;;;;;;;;;;20.10;64.10;;;;;;20718752;28;20003;-77
2021/08/24 14:07:01;;;;;;;;;;;20.10;64.10;;;;;;20717612;28;19971;-78
2021/08/24 14:17:01;;;;;;;;;;;20.10;64.10;;;;;;20734784;28;20283;-77
2021/08/24 14:27:02;;;;;;;;;;;20.10;64.10;;;;;;20700123;28;19924;-76
2021/08/24 14:37:12;;;;;;;;;;;20.10;64.10;;;;;;20699117;28;19971;-77
2021/08/24 14:47:27;;;;;;;;;;;20.20;64.00;;;;;;20714396;28;19922;-77
2021/08/24 14:57:28;;;;;;;;;;;20.30;63.90;;;;;;20696495;28;19972;-77
2021/08/24 15:07:28;;;;;;;;;;;20.30;63.80;;;;;;20729440;28;19968;-77
2021/08/24 15:17:30;;;;;;;;;;;20.30;63.80;;;;;;20712285;28;19906;-78
2021/08/24 15:27:32;;;;;;;;;;;20.30;63.80;;;;;;20711473;28;19961;-77
2021/08/24 15:37:32;;;;;;;;;;;20.40;63.70;;;;;;20712139;28;19951;-77
2021/08/24 15:47:36;;;;;;;;;;;20.40;63.50;;;;;;20710395;28;19957;-77
2021/08/24 15:57:36;;;;;;;;;;;20.40;63.40;;;;;;20725313;28;19913;-79
2021/08/24 16:07:37;;;;;;;;;;;20.50;63.40;;;;;;20730363;28;19971;-86
2021/08/24 16:17:39;;;;;;;;;;;20.60;63.90;;;;;;20718541;28;20272;-77
2021/08/24 16:27:40;;;;;;;;;;;20.60;63.10;;;;;;20720565;28;19960;-78
2021/08/24 16:37:44;;;;;;;;;;;20.60;62.90;;;;;;20726965;28;19960;-76
2021/08/24 16:47:46;;;;;;;;;;;20.60;62.80;;;;;;20708409;28;19924;-77
2021/08/24 16:57:47;;;;;;;;;;;20.60;62.80;;;;;;20721008;28;19913;-78
2021/08/24 17:07:48;;;;;;;;;;;20.60;62.80;;;;;;20689984;28;19924;-74
2021/08/24 17:17:48;;;;;;;;;;;20.60;62.80;;;;;;20722284;28;19918;-76
2021/08/24 17:27:49;;;;;;;;;;;20.70;62.90;;;;;;20716860;28;19941;-76
2021/08/24 17:37:49;;;;;;;;;;;20.50;62.70;;;;;;20759825;28;19913;-78
2021/08/24 17:47:54;;;;;;;;;;;20.50;62.90;;;;;;20784495;28;19912;-78
2021/08/24 17:57:55;;;;;;;;;;;20.50;63.10;;;;;;20726131;28;20286;-77
2021/08/24 18:07:55;;;;;;;;;;;20.40;63.20;;;;;;20735369;28;19917;-79
2021/08/24 18:17:56;;;;;;;;;;;20.40;63.30;;;;;;20772762;28;20345;-78
2021/08/24 18:27:57;;;;;;;;;;;20.40;63.40;;;;;;20736678;28;19955;-79
2021/08/24 18:37:58;;;;;;;;;;;20.30;63.40;;;;;;20791052;28;19917;-80
2021/08/24 18:47:58;;;;;;;;;;;20.30;63.50;;;;;;20799503;28;20026;-84
2021/08/24 18:58:00;;;;;;;;;;;20.30;63.40;;;;;;20744262;28;19952;-85
2021/08/24 19:08:00;;;;;;;;;;;20.40;63.60;;;;;;20710691;28;19917;-80
2021/08/24 19:18:01;;;;;;;;;;;20.20;63.50;;;;;;20726884;28;19998;-81
2021/08/24 19:28:02;;;;;;;;;;;20.20;63.60;;;;;;20695655;28;20287;-80
2021/08/24 19:38:03;;;;;;;;;;;20.20;63.60;;;;;;20711102;28;19921;-82
2021/08/24 19:48:07;;;;;;;;;;;20.20;63.60;;;;;;20695153;28;20020;-81
2021/08/24 19:58:07;;;;;;;;;;;20.10;63.60;;;;;;20711573;28;19913;-80
2021/08/24 20:08:09;;;;;;;;;;;20.10;63.60;;;;;;20692515;28;20267;-80
2021/08/24 20:18:10;;;;;;;;;;;20.20;63.70;;;;;;20708892;28;20275;-80
2021/08/24 20:28:11;;;;;;;;;;;20.10;63.70;;;;;;20724285;28;19923;-81
2021/08/24 20:38:11;;;;;;;;;;;20.00;63.60;;;;;;20692260;28;19920;-81
2021/08/24 20:48:12;;;;;;;;;;;20.00;63.60;;;;;;20707030;28;19918;-81
2021/08/24 20:58:12;;;;;;;;;;;20.00;63.60;;;;;;20738148;28;19919;-79
2021/08/24 21:08:13;;;;;;;;;;;20.00;63.50;;;;;;20722649;28;19913;-78
2021/08/24 21:18:14;;;;;;;;;;;19.90;63.40;;;;;;20740081;28;20028;-79
2021/08/24 21:28:14;;;;;;;;;;;20.00;63.50;;;;;;20752976;28;19917;-79
2021/08/24 21:38:17;;;;;;;;;;;20.00;63.40;;;;;;20776356;28;19916;-79
2021/08/24 21:48:17;;;;;;;;;;;20.00;63.40;;;;;;20756480;28;19917;-79
2021/08/24 21:58:21;;;;;;;;;;;20.00;63.50;;;;;;20702484;28;20315;-79
2021/08/24 22:08:23;;;;;;;;;;;20.00;63.50;;;;;;20702147;28;19913;-80
2021/08/24 22:18:23;;;;;;;;;;;20.00;63.40;;;;;;20734090;28;19918;-79
2021/08/24 22:28:28;;;;;;;;;;;19.90;63.40;;;;;;20700047;28;19928;-80
2021/08/24 22:38:29;;;;;;;;;;;19.90;63.30;;;;;;20731864;28;19913;-80
2021/08/24 22:48:29;;;;;;;;;;;19.90;63.30;;;;;;20715051;28;19917;-79
2021/08/24 22:58:30;;;;;;;;;;;19.90;63.30;;;;;;20748193;28;19919;-79
2021/08/24 23:08:30;;;;;;;;;;;19.90;63.20;;;;;;20729860;28;20012;-79
2021/08/24 23:18:31;;;;;;;;;;;19.90;63.10;;;;;;20711975;28;19914;-79
2021/08/24 23:28:32;;;;;;;;;;;19.90;63.10;;;;;;20712095;28;19917;-79
2021/08/24 23:38:32;;;;;;;;;;;19.80;63.00;;;;;;20727168;28;19920;-80
2021/08/24 23:48:33;;;;;;;;;;;19.80;63.00;;;;;;20710116;28;19948;-80
2021/08/24 23:58:34;;;;;;;;;;;19.80;62.90;;;;;;20709850;28;20398;-80
